Time;durP1;ratioP1;P1;durP2;ratioP2;P2;SDS_P1;SDS_P2;PMS_P1;PMS_P2;Temp;Humidity;BMP_temperature;BMP_pressure;BME280_temperature;BME280_humidity;BME280_pressure;Samples;Min_cycle;Max_cycle;Signal;HPM_P1;HPM_P2
2024/01/09 00:01:33;;;;;;;;;;;4.70;87.00;;;;;;5003897;28;93579;-48
2024/01/09 00:03:59;;;;;;;;;;;4.70;86.90;;;;;;4994901;28;91764;-49
2024/01/09 00:06:24;;;;;;;;;;;4.70;86.90;;;;;;4993802;28;92457;-48
2024/01/09 00:08:50;;;;;;;;;;;4.70;86.90;;;;;;4999253;28;91959;-51
2024/01/09 00:11:15;;;;;;;;;;;4.70;86.80;;;;;;4994831;28;92930;-49
2024/01/09 00:13:41;;;;;;;;;;;4.60;86.80;;;;;;5000037;28;95182;-48
2024/01/09 00:16:07;;;;;;;;;;;4.60;86.90;;;;;;4996976;28;92065;-49
2024/01/09 00:18:32;;;;;;;;;;;4.70;86.80;;;;;;4993575;28;92170;-48
2024/01/09 00:20:58;;;;;;;;;;;4.70;86.90;;;;;;4995964;28;93609;-49
2024/01/09 00:23:23;;;;;;;;;;;4.70;86.80;;;;;;5000672;28;92172;-50
2024/01/09 00:25:49;;;;;;;;;;;4.60;86.70;;;;;;4996010;28;92477;-49
2024/01/09 00:28:15;;;;;;;;;;;4.60;87.10;;;;;;4995901;28;91275;-49
2024/01/09 00:30:40;;;;;;;;;;;4.60;86.90;;;;;;4997629;28;91925;-49
2024/01/09 00:33:06;;;;;;;;;;;4.60;86.80;;;;;;4997078;28;91918;-48
2024/01/09 00:35:31;;;;;;;;;;;4.60;86.80;;;;;;4994594;28;93030;-51
2024/01/09 00:37:57;;;;;;;;;;;4.60;87.00;;;;;;4995914;28;92620;-48
2024/01/09 00:40:22;;;;;;;;;;;4.60;87.00;;;;;;5000253;28;92406;-49
2024/01/09 00:42:48;;;;;;;;;;;4.50;86.90;;;;;;4997262;28;92059;-48
2024/01/09 00:45:14;;;;;;;;;;;4.50;86.80;;;;;;5000111;28;92288;-52
2024/01/09 00:47:39;;;;;;;;;;;4.60;86.80;;;;;;4997203;28;92111;-48
2024/01/09 00:50:05;;;;;;;;;;;4.50;86.80;;;;;;4994149;28;91996;-49
2024/01/09 00:52:30;;;;;;;;;;;4.50;86.80;;;;;;4995487;28;91703;-49
2024/01/09 00:54:56;;;;;;;;;;;4.50;86.80;;;;;;4992388;28;92139;-49
2024/01/09 00:57:21;;;;;;;;;;;4.50;86.70;;;;;;4997251;28;92596;-50
2024/01/09 00:59:47;;;;;;;;;;;4.40;86.70;;;;;;4991622;28;93439;-48
2024/01/09 01:02:13;;;;;;;;;;;4.50;86.80;;;;;;4994362;28;91935;-47
2024/01/09 01:04:39;;;;;;;;;;;4.50;86.70;;;;;;4994157;28;92111;-48
2024/01/09 01:07:04;;;;;;;;;;;4.50;86.60;;;;;;4995245;28;93522;-49
2024/01/09 01:09:30;;;;;;;;;;;4.50;86.60;;;;;;4995439;28;91941;-49
2024/01/09 01:11:55;;;;;;;;;;;4.50;86.60;;;;;;4993483;28;92521;-49
2024/01/09 01:14:21;;;;;;;;;;;4.40;86.50;;;;;;4995230;28;91963;-48
2024/01/09 01:16:47;;;;;;;;;;;4.40;86.60;;;;;;4994884;28;92797;-50
2024/01/09 01:19:12;;;;;;;;;;;4.40;86.70;;;;;;4994057;28;92582;-48
2024/01/09 01:21:38;;;;;;;;;;;4.40;86.80;;;;;;4998008;28;92273;-48
2024/01/09 01:24:04;;;;;;;;;;;4.40;86.60;;;;;;5001371;28;94771;-51
2024/01/09 01:26:29;;;;;;;;;;;4.40;86.80;;;;;;4992853;28;92400;-48
2024/01/09 01:28:55;;;;;;;;;;;4.40;86.60;;;;;;4997709;28;91903;-47
2024/01/09 01:31:20;;;;;;;;;;;4.40;86.70;;;;;;4994132;28;92424;-49
2024/01/09 01:33:46;;;;;;;;;;;4.30;86.70;;;;;;4994559;28;92533;-48
2024/01/09 01:36:12;;;;;;;;;;;4.40;86.70;;;;;;4992827;28;92062;-49
2024/01/09 01:38:38;;;;;;;;;;;4.30;86.60;;;;;;4994069;28;92447;-49
2024/01/09 01:41:04;;;;;;;;;;;4.30;86.60;;;;;;4996274;28;91320;-48
2024/01/09 01:43:29;;;;;;;;;;;4.30;86.60;;;;;;4994534;28;92007;-48
2024/01/09 01:45:55;;;;;;;;;;;4.30;86.50;;;;;;4993660;28;92681;-50
2024/01/09 01:48:20;;;;;;;;;;;4.30;86.60;;;;;;4998308;28;93354;-49
2024/01/09 01:50:47;;;;;;;;;;;4.20;86.60;;;;;;4995275;28;93439;-49
2024/01/09 01:53:12;;;;;;;;;;;4.30;86.60;;;;;;4992034;28;92008;-49
2024/01/09 01:55:38;;;;;;;;;;;4.30;86.60;;;;;;4992525;28;91927;-49
2024/01/09 01:58:04;;;;;;;;;;;4.20;86.70;;;;;;4991210;28;92493;-50
2024/01/09 02:00:30;;;;;;;;;;;4.20;86.70;;;;;;4994399;28;92026;-49
2024/01/09 02:02:56;;;;;;;;;;;4.20;86.70;;;;;;4993835;28;93130;-50
2024/01/09 02:05:22;;;;;;;;;;;4.20;86.60;;;;;;4990840;28;91957;-49
2024/01/09 02:07:50;;;;;;;;;;;4.20;86.50;;;;;;4995724;28;92030;-48
2024/01/09 02:10:16;;;;;;;;;;;4.20;86.60;;;;;;5000411;28;92820;-51
2024/01/09 02:12:42;;;;;;;;;;;4.20;86.60;;;;;;4991157;28;93019;-49
2024/01/09 02:15:08;;;;;;;;;;;4.20;86.60;;;;;;4996188;28;93765;-50
2024/01/09 02:17:33;;;;;;;;;;;4.10;86.60;;;;;;4994798;28;93993;-49
2024/01/09 02:19:59;;;;;;;;;;;4.10;86.60;;;;;;4997139;28;92065;-48
2024/01/09 02:22:26;;;;;;;;;;;4.20;86.60;;;;;;4995188;28;92048;-49
2024/01/09 02:24:52;;;;;;;;;;;4.10;86.50;;;;;;4989114;28;92422;-48
2024/01/09 02:27:24;;;;;;;;;;;4.10;86.40;;;;;;4989504;28;92092;-49
2024/01/09 02:29:50;;;;;;;;;;;4.10;86.50;;;;;;4995511;28;91768;-48
2024/01/09 02:32:16;;;;;;;;;;;4.10;86.40;;;;;;4997956;28;93682;-48
2024/01/09 02:34:43;;;;;;;;;;;4.10;86.40;;;;;;4992372;28;93586;-48
2024/01/09 02:37:08;;;;;;;;;;;4.10;86.40;;;;;;4993734;28;93445;-49
2024/01/09 02:39:34;;;;;;;;;;;4.10;86.40;;;;;;4988907;28;92614;-48
2024/01/09 02:41:59;;;;;;;;;;;4.10;86.40;;;;;;4994268;28;92021;-49
2024/01/09 02:44:25;;;;;;;;;;;4.00;86.30;;;;;;4994475;28;92628;-50
2024/01/09 02:46:50;;;;;;;;;;;4.00;86.30;;;;;;4995125;28;92118;-50
2024/01/09 02:49:16;;;;;;;;;;;4.00;86.40;;;;;;4990571;28;92994;-48
2024/01/09 02:51:42;;;;;;;;;;;4.00;86.40;;;;;;4989062;28;92583;-49
2024/01/09 02:54:07;;;;;;;;;;;4.00;86.30;;;;;;4996921;28;91947;-48
2024/01/09 02:56:36;;;;;;;;;;;4.00;86.40;;;;;;4997374;28;95655;-49
2024/01/09 02:59:02;;;;;;;;;;;4.00;86.30;;;;;;4992325;28;92156;-48
2024/01/09 03:01:28;;;;;;;;;;;4.00;86.50;;;;;;4994139;28;93209;-48
2024/01/09 03:03:53;;;;;;;;;;;4.00;86.40;;;;;;4991522;28;92987;-47
2024/01/09 03:06:19;;;;;;;;;;;4.00;86.60;;;;;;4995133;28;92176;-51
2024/01/09 03:08:44;;;;;;;;;;;4.00;86.50;;;;;;4994378;28;91934;-48
2024/01/09 03:11:10;;;;;;;;;;;3.90;86.30;;;;;;4992266;28;92651;-49
2024/01/09 03:13:35;;;;;;;;;;;3.90;86.70;;;;;;4995681;28;92090;-48
2024/01/09 03:16:01;;;;;;;;;;;3.90;86.40;;;;;;4996745;28;92072;-48
2024/01/09 03:18:27;;;;;;;;;;;3.90;87.00;;;;;;4992057;28;91341;-50
2024/01/09 03:20:52;;;;;;;;;;;3.90;86.40;;;;;;4997973;28;92006;-49
2024/01/09 03:23:18;;;;;;;;;;;3.90;86.40;;;;;;4990398;28;93195;-49
2024/01/09 03:25:43;;;;;;;;;;;3.90;86.50;;;;;;4998320;28;93107;-52
2024/01/09 03:28:09;;;;;;;;;;;3.90;86.50;;;;;;4995248;28;92750;-48
2024/01/09 03:30:34;;;;;;;;;;;3.90;86.40;;;;;;4994425;28;92525;-50
2024/01/09 03:33:00;;;;;;;;;;;3.90;86.30;;;;;;4995954;28;91972;-51
2024/01/09 03:35:25;;;;;;;;;;;3.90;86.40;;;;;;4999079;28;92065;-50
2024/01/09 03:37:51;;;;;;;;;;;3.80;86.20;;;;;;4999197;28;92406;-50
2024/01/09 03:40:16;;;;;;;;;;;3.80;86.30;;;;;;4997360;28;92733;-48
2024/01/09 03:42:42;;;;;;;;;;;3.80;86.40;;;;;;4995887;28;91926;-47
2024/01/09 03:45:08;;;;;;;;;;;3.80;86.20;;;;;;4997839;28;92546;-48
2024/01/09 03:47:34;;;;;;;;;;;3.80;86.30;;;;;;4997798;28;92246;-50
2024/01/09 03:50:00;;;;;;;;;;;3.70;86.40;;;;;;4995218;28;94426;-51
2024/01/09 03:52:25;;;;;;;;;;;3.80;86.40;;;;;;4997475;28;92423;-48
2024/01/09 03:54:51;;;;;;;;;;;3.80;86.30;;;;;;5002086;28;92859;-47
2024/01/09 03:57:16;;;;;;;;;;;3.70;86.30;;;;;;5000931;28;93440;-48
2024/01/09 03:59:42;;;;;;;;;;;3.70;86.30;;;;;;5001351;28;92131;-48
2024/01/09 04:02:07;;;;;;;;;;;3.80;86.30;;;;;;4996604;28;93439;-47
2024/01/09 04:04:33;;;;;;;;;;;3.70;86.20;;;;;;4995794;28;92059;-47
2024/01/09 04:06:59;;;;;;;;;;;3.70;86.20;;;;;;4998115;28;91680;-47
2024/01/09 04:09:25;;;;;;;;;;;3.70;86.10;;;;;;4991557;28;92417;-48
2024/01/09 04:11:50;;;;;;;;;;;3.70;86.10;;;;;;4997696;28;92027;-48
2024/01/09 04:14:16;;;;;;;;;;;3.70;86.30;;;;;;4994904;28;92845;-48
2024/01/09 04:16:46;;;;;;;;;;;3.60;86.40;;;;;;4995412;28;92436;-51
2024/01/09 04:19:12;;;;;;;;;;;3.70;86.30;;;;;;4997511;28;92045;-48
2024/01/09 04:21:37;;;;;;;;;;;3.60;86.60;;;;;;4996898;28;92388;-49
2024/01/09 04:24:03;;;;;;;;;;;3.70;86.30;;;;;;4998849;28;92164;-47
2024/01/09 04:26:28;;;;;;;;;;;3.70;86.20;;;;;;4997714;28;92064;-48
2024/01/09 04:28:54;;;;;;;;;;;3.70;86.20;;;;;;4994323;28;93795;-48
2024/01/09 04:31:23;;;;;;;;;;;3.70;86.10;;;;;;4996109;28;91248;-48
2024/01/09 04:33:48;;;;;;;;;;;3.70;86.00;;;;;;4994786;28;92063;-50
2024/01/09 04:36:15;;;;;;;;;;;3.70;85.90;;;;;;4995712;28;92526;-49
2024/01/09 04:38:41;;;;;;;;;;;3.70;86.10;;;;;;4993478;28;92904;-48
2024/01/09 04:41:06;;;;;;;;;;;3.70;86.00;;;;;;4998801;28;92499;-48
2024/01/09 04:43:32;;;;;;;;;;;3.60;86.10;;;;;;4996229;28;92088;-50
2024/01/09 04:45:57;;;;;;;;;;;3.60;86.10;;;;;;4997599;28;92295;-48
2024/01/09 04:48:23;;;;;;;;;;;3.60;86.10;;;;;;4995325;28;92467;-48
2024/01/09 04:50:48;;;;;;;;;;;3.50;86.00;;;;;;4994716;28;92006;-50
2024/01/09 04:53:14;;;;;;;;;;;3.60;85.90;;;;;;4995436;28;92628;-49
2024/01/09 04:55:39;;;;;;;;;;;3.60;85.70;;;;;;4998021;28;91752;-47
2024/01/09 04:58:05;;;;;;;;;;;3.60;85.50;;;;;;5000491;28;92228;-51
2024/01/09 05:00:30;;;;;;;;;;;3.60;85.60;;;;;;4998908;28;92739;-51
2024/01/09 05:02:56;;;;;;;;;;;3.50;85.60;;;;;;4999794;28;93469;-52
2024/01/09 05:05:22;;;;;;;;;;;3.50;85.60;;;;;;4995256;28;91939;-48
2024/01/09 05:07:47;;;;;;;;;;;3.60;85.50;;;;;;4992287;28;92446;-48
2024/01/09 05:10:13;;;;;;;;;;;3.50;85.30;;;;;;4994827;28;92060;-48
2024/01/09 05:12:38;;;;;;;;;;;3.50;85.20;;;;;;5000210;28;91963;-48
2024/01/09 05:15:04;;;;;;;;;;;3.50;85.50;;;;;;4996526;28;92545;-48
2024/01/09 05:17:30;;;;;;;;;;;3.50;85.50;;;;;;4994647;28;92060;-48
2024/01/09 05:19:56;;;;;;;;;;;3.50;84.90;;;;;;4994920;28;91803;-48
2024/01/09 05:22:21;;;;;;;;;;;3.40;85.00;;;;;;4993141;28;93638;-49
2024/01/09 05:24:47;;;;;;;;;;;3.30;84.90;;;;;;4995493;28;92021;-48
2024/01/09 05:27:12;;;;;;;;;;;3.40;84.90;;;;;;4995167;28;93372;-49
2024/01/09 05:29:38;;;;;;;;;;;3.40;84.70;;;;;;4992160;28;92203;-48
2024/01/09 05:32:04;;;;;;;;;;;3.30;84.60;;;;;;4992852;28;92960;-47
2024/01/09 05:34:30;;;;;;;;;;;3.30;84.40;;;;;;4991637;28;93953;-48
2024/01/09 05:36:55;;;;;;;;;;;3.40;84.60;;;;;;4996254;28;92028;-48
2024/01/09 05:39:21;;;;;;;;;;;3.30;84.10;;;;;;4994695;28;93515;-48
2024/01/09 05:41:47;;;;;;;;;;;3.40;84.50;;;;;;4993532;28;93473;-49
2024/01/09 05:44:12;;;;;;;;;;;3.30;83.70;;;;;;4995970;28;91193;-47
2024/01/09 05:46:38;;;;;;;;;;;3.30;84.00;;;;;;4998354;28;91939;-49
2024/01/09 05:49:03;;;;;;;;;;;3.30;84.00;;;;;;4993872;28;92073;-48
2024/01/09 05:51:29;;;;;;;;;;;3.20;84.10;;;;;;4993309;28;92855;-51
2024/01/09 05:53:54;;;;;;;;;;;3.20;84.40;;;;;;4992800;28;93270;-49
2024/01/09 05:56:20;;;;;;;;;;;3.20;83.80;;;;;;4996123;28;92148;-48
2024/01/09 05:58:46;;;;;;;;;;;3.20;84.40;;;;;;4998396;28;91866;-46
2024/01/09 06:01:11;;;;;;;;;;;3.20;84.20;;;;;;5002544;28;92453;-47
2024/01/09 06:03:37;;;;;;;;;;;3.10;83.70;;;;;;4994592;28;92091;-47
2024/01/09 06:06:02;;;;;;;;;;;3.20;83.70;;;;;;4997935;28;92914;-48
2024/01/09 06:08:28;;;;;;;;;;;3.10;83.90;;;;;;4995004;28;91305;-48
2024/01/09 06:10:53;;;;;;;;;;;3.10;83.10;;;;;;4990194;28;92043;-47
2024/01/09 06:13:19;;;;;;;;;;;3.10;83.10;;;;;;4988580;28;92508;-47
2024/01/09 06:15:45;;;;;;;;;;;3.00;83.50;;;;;;4994415;28;93086;-47
2024/01/09 06:18:10;;;;;;;;;;;3.00;84.00;;;;;;4994301;28;93810;-50
2024/01/09 06:20:36;;;;;;;;;;;3.00;84.00;;;;;;4997316;28;92513;-48
2024/01/09 06:23:02;;;;;;;;;;;3.00;83.90;;;;;;4996315;28;92287;-47
2024/01/09 06:25:27;;;;;;;;;;;3.00;83.70;;;;;;4994864;28;91971;-49
2024/01/09 06:27:53;;;;;;;;;;;3.00;83.90;;;;;;4994839;28;92598;-47
2024/01/09 06:30:18;;;;;;;;;;;3.00;83.60;;;;;;4993041;28;92286;-52
2024/01/09 06:32:44;;;;;;;;;;;3.00;83.50;;;;;;4995957;28;91985;-49
2024/01/09 06:35:10;;;;;;;;;;;3.00;83.50;;;;;;4995010;28;92081;-47
2024/01/09 06:37:35;;;;;;;;;;;3.00;83.60;;;;;;4994465;28;92017;-47
2024/01/09 06:40:01;;;;;;;;;;;3.00;83.20;;;;;;4996031;28;93570;-49
2024/01/09 06:42:26;;;;;;;;;;;2.90;83.30;;;;;;4994977;28;92038;-47
2024/01/09 06:44:52;;;;;;;;;;;2.90;82.80;;;;;;4992806;28;92104;-47
2024/01/09 06:47:17;;;;;;;;;;;2.90;83.10;;;;;;4994249;28;93136;-47
2024/01/09 06:49:43;;;;;;;;;;;3.00;83.20;;;;;;4998529;28;92111;-47
2024/01/09 06:52:09;;;;;;;;;;;3.00;82.80;;;;;;4990599;28;91963;-47
2024/01/09 06:54:35;;;;;;;;;;;3.00;83.00;;;;;;5001347;28;92193;-47
2024/01/09 06:57:00;;;;;;;;;;;3.00;82.20;;;;;;4997111;28;92922;-49
2024/01/09 06:59:26;;;;;;;;;;;2.80;82.40;;;;;;4992373;28;92600;-47
2024/01/09 07:01:52;;;;;;;;;;;2.80;82.50;;;;;;4996199;28;92225;-47
2024/01/09 07:04:17;;;;;;;;;;;2.80;82.40;;;;;;4999081;28;93721;-47
2024/01/09 07:06:43;;;;;;;;;;;2.80;82.30;;;;;;4993989;28;93778;-48
2024/01/09 07:09:08;;;;;;;;;;;2.80;82.40;;;;;;4991516;28;92033;-46
2024/01/09 07:11:34;;;;;;;;;;;2.80;82.30;;;;;;4993058;28;91927;-47
2024/01/09 07:14:00;;;;;;;;;;;2.70;82.60;;;;;;4997647;28;92133;-47
2024/01/09 07:16:26;;;;;;;;;;;2.70;82.50;;;;;;4995773;28;92902;-46
2024/01/09 07:18:52;;;;;;;;;;;2.70;82.00;;;;;;4993711;28;93595;-46
2024/01/09 07:21:17;;;;;;;;;;;2.70;82.60;;;;;;4991172;28;91290;-47
2024/01/09 07:23:44;;;;;;;;;;;2.70;82.00;;;;;;4993808;28;92542;-49
2024/01/09 07:26:09;;;;;;;;;;;2.70;82.00;;;;;;4992083;28;94316;-47
2024/01/09 07:28:35;;;;;;;;;;;2.70;81.50;;;;;;4990004;28;93081;-48
2024/01/09 07:31:02;;;;;;;;;;;2.70;82.00;;;;;;4990769;28;92608;-48
2024/01/09 07:33:27;;;;;;;;;;;2.60;81.60;;;;;;4997216;28;92440;-48
2024/01/09 07:35:53;;;;;;;;;;;2.60;81.50;;;;;;4988469;28;92201;-47
2024/01/09 07:38:23;;;;;;;;;;;2.60;82.20;;;;;;4992747;28;92756;-48
2024/01/09 07:40:49;;;;;;;;;;;2.60;82.20;;;;;;4991092;28;91820;-47
2024/01/09 07:43:15;;;;;;;;;;;2.60;82.20;;;;;;4992266;28;92186;-47
2024/01/09 07:45:41;;;;;;;;;;;2.60;81.90;;;;;;4994900;28;91815;-47
2024/01/09 07:48:06;;;;;;;;;;;2.60;82.30;;;;;;4991538;28;92174;-47
2024/01/09 07:50:32;;;;;;;;;;;2.60;82.40;;;;;;4997567;28;92118;-48
2024/01/09 07:52:58;;;;;;;;;;;2.60;82.10;;;;;;4994890;28;93430;-47
2024/01/09 07:55:25;;;;;;;;;;;2.50;82.50;;;;;;4994561;28;92092;-48
2024/01/09 07:57:50;;;;;;;;;;;2.60;82.00;;;;;;4992725;28;93421;-48
2024/01/09 08:00:16;;;;;;;;;;;2.60;82.00;;;;;;4996187;28;92007;-52
2024/01/09 08:02:42;;;;;;;;;;;2.50;82.00;;;;;;4996518;28;93727;-47
2024/01/09 08:05:08;;;;;;;;;;;2.50;82.10;;;;;;4991450;28;92465;-47
2024/01/09 08:07:33;;;;;;;;;;;2.50;82.30;;;;;;4993547;28;92079;-48
2024/01/09 08:09:59;;;;;;;;;;;2.50;82.30;;;;;;4990143;28;92916;-48
2024/01/09 08:12:25;;;;;;;;;;;2.50;82.40;;;;;;4992536;28;94406;-48
2024/01/09 08:14:50;;;;;;;;;;;2.50;81.80;;;;;;4996477;28;92011;-47
2024/01/09 08:17:16;;;;;;;;;;;2.50;81.80;;;;;;4995909;28;94489;-47
2024/01/09 08:19:42;;;;;;;;;;;2.50;81.80;;;;;;4998498;28;92788;-48
2024/01/09 08:22:08;;;;;;;;;;;2.50;82.30;;;;;;4994550;28;92039;-48
2024/01/09 08:24:33;;;;;;;;;;;2.40;82.40;;;;;;4998075;28;92618;-48
2024/01/09 08:26:59;;;;;;;;;;;2.40;82.50;;;;;;4993706;28;92762;-50
2024/01/09 08:29:27;;;;;;;;;;;2.40;82.00;;;;;;4994607;28;92771;-50
2024/01/09 08:31:53;;;;;;;;;;;2.40;82.30;;;;;;4992794;28;93601;-48
2024/01/09 08:34:19;;;;;;;;;;;2.40;82.00;;;;;;4995736;28;91390;-47
2024/01/09 08:36:45;;;;;;;;;;;2.30;82.40;;;;;;4999869;28;92065;-47
2024/01/09 08:39:11;;;;;;;;;;;2.30;82.50;;;;;;4989753;28;92017;-47
2024/01/09 08:41:37;;;;;;;;;;;2.40;82.20;;;;;;4989468;28;94654;-49
2024/01/09 08:44:02;;;;;;;;;;;2.40;81.70;;;;;;4988283;28;93833;-47
2024/01/09 08:46:28;;;;;;;;;;;2.40;82.00;;;;;;4998948;28;91986;-47
2024/01/09 08:48:54;;;;;;;;;;;2.30;81.90;;;;;;4994223;28;92264;-49
2024/01/09 08:51:19;;;;;;;;;;;2.40;82.30;;;;;;4993986;28;92696;-47
2024/01/09 08:53:45;;;;;;;;;;;2.30;82.40;;;;;;4992608;28;92142;-48
2024/01/09 08:56:10;;;;;;;;;;;2.30;82.30;;;;;;4997055;28;92060;-47
2024/01/09 08:58:36;;;;;;;;;;;2.30;82.30;;;;;;4998730;28;91845;-47
2024/01/09 09:01:03;;;;;;;;;;;2.20;81.90;;;;;;4992831;28;92394;-47
2024/01/09 09:03:28;;;;;;;;;;;2.30;81.80;;;;;;4997261;28;93540;-48
2024/01/09 09:05:54;;;;;;;;;;;2.40;81.80;;;;;;4988249;28;92975;-48
2024/01/09 09:08:21;;;;;;;;;;;2.30;82.00;;;;;;4996651;28;92736;-47
2024/01/09 09:10:46;;;;;;;;;;;2.20;81.80;;;;;;4992871;28;92861;-49
2024/01/09 09:13:12;;;;;;;;;;;2.20;81.70;;;;;;4990949;28;92020;-48
2024/01/09 09:15:38;;;;;;;;;;;2.20;81.90;;;;;;4993385;28;91993;-48
2024/01/09 09:18:04;;;;;;;;;;;2.10;82.20;;;;;;4996262;28;92466;-47
2024/01/09 09:20:29;;;;;;;;;;;2.20;82.50;;;;;;4997902;28;92444;-47
2024/01/09 09:22:55;;;;;;;;;;;2.20;82.50;;;;;;4995178;28;91783;-48
2024/01/09 09:25:21;;;;;;;;;;;2.20;82.00;;;;;;4995852;28;92112;-49
2024/01/09 09:27:46;;;;;;;;;;;2.20;82.10;;;;;;4994705;28;92177;-53
2024/01/09 09:30:12;;;;;;;;;;;2.10;82.10;;;;;;4988884;28;94603;-48
2024/01/09 09:32:38;;;;;;;;;;;2.20;82.00;;;;;;4996404;28;92014;-47
2024/01/09 09:35:04;;;;;;;;;;;2.20;81.90;;;;;;4993716;28;92027;-47
2024/01/09 09:37:30;;;;;;;;;;;2.20;82.20;;;;;;4996965;28;93673;-48
2024/01/09 09:39:55;;;;;;;;;;;2.20;81.80;;;;;;4995066;28;92027;-48
2024/01/09 09:42:22;;;;;;;;;;;2.20;81.80;;;;;;4998812;28;92101;-48
2024/01/09 09:44:52;;;;;;;;;;;2.20;81.50;;;;;;4998955;28;92094;-48
2024/01/09 09:47:18;;;;;;;;;;;2.20;81.80;;;;;;4989108;28;91759;-48
2024/01/09 09:49:45;;;;;;;;;;;2.10;81.80;;;;;;4994022;28;93702;-48
2024/01/09 09:52:11;;;;;;;;;;;2.20;81.80;;;;;;4993375;28;92045;-49
2024/01/09 09:54:37;;;;;;;;;;;2.10;81.80;;;;;;4995697;28;92988;-47
2024/01/09 09:57:03;;;;;;;;;;;2.20;81.70;;;;;;4991153;28;92225;-52
2024/01/09 09:59:29;;;;;;;;;;;2.20;82.00;;;;;;4993210;28;92188;-48
2024/01/09 10:01:55;;;;;;;;;;;2.20;81.90;;;;;;4999387;28;92004;-50
2024/01/09 10:04:29;;;;;;;;;;;2.20;81.90;;;;;;4997324;28;92790;-48
2024/01/09 10:06:58;;;;;;;;;;;2.20;81.80;;;;;;4992909;28;92885;-48
2024/01/09 10:09:28;;;;;;;;;;;2.20;81.80;;;;;;4993773;28;93526;-48
2024/01/09 10:11:54;;;;;;;;;;;2.20;81.80;;;;;;4997491;28;91408;-51
2024/01/09 10:14:19;;;;;;;;;;;2.10;82.20;;;;;;4990461;28;92158;-51
2024/01/09 10:16:49;;;;;;;;;;;2.10;81.90;;;;;;4996757;28;92454;-53
2024/01/09 10:19:15;;;;;;;;;;;2.10;82.10;;;;;;4992802;28;93432;-51
2024/01/09 10:21:41;;;;;;;;;;;2.10;82.00;;;;;;4998248;28;93875;-49
2024/01/09 10:24:07;;;;;;;;;;;2.10;81.90;;;;;;4994339;28;92776;-51
2024/01/09 10:26:33;;;;;;;;;;;2.10;82.10;;;;;;4997085;28;91956;-48
2024/01/09 10:28:58;;;;;;;;;;;2.10;82.00;;;;;;4993383;28;92711;-48
2024/01/09 10:31:24;;;;;;;;;;;2.10;81.60;;;;;;4993328;28;92134;-48
2024/01/09 10:33:49;;;;;;;;;;;2.10;81.80;;;;;;4991410;28;92262;-48
2024/01/09 10:36:15;;;;;;;;;;;2.10;81.70;;;;;;4993141;28;91829;-47
2024/01/09 10:38:41;;;;;;;;;;;2.10;81.60;;;;;;4992889;28;92587;-47
2024/01/09 10:41:16;;;;;;;;;;;2.10;81.30;;;;;;4990381;28;92732;-47
2024/01/09 10:43:42;;;;;;;;;;;2.10;81.10;;;;;;4992866;28;93506;-50
2024/01/09 10:46:08;;;;;;;;;;;2.10;80.70;;;;;;4999897;28;91952;-47
2024/01/09 10:48:34;;;;;;;;;;;2.10;80.50;;;;;;4995755;28;92568;-46
2024/01/09 10:51:00;;;;;;;;;;;2.10;80.60;;;;;;4994495;28;92052;-51
2024/01/09 10:53:27;;;;;;;;;;;2.10;80.40;;;;;;4992974;28;92078;-52
2024/01/09 10:55:54;;;;;;;;;;;2.10;80.40;;;;;;4990492;28;92487;-47
2024/01/09 10:58:20;;;;;;;;;;;2.10;80.30;;;;;;4992540;28;92048;-47
2024/01/09 11:00:47;;;;;;;;;;;2.10;80.40;;;;;;4998259;28;92034;-48
2024/01/09 11:03:12;;;;;;;;;;;2.10;80.70;;;;;;4989384;28;92551;-47
2024/01/09 11:05:38;;;;;;;;;;;2.10;80.60;;;;;;4996676;28;92539;-47
2024/01/09 11:08:05;;;;;;;;;;;2.00;80.40;;;;;;4991626;28;93041;-47
2024/01/09 11:10:32;;;;;;;;;;;2.00;80.80;;;;;;4993835;28;92434;-49
2024/01/09 11:12:58;;;;;;;;;;;2.00;80.90;;;;;;4992685;28;92591;-47
2024/01/09 11:15:29;;;;;;;;;;;2.00;81.00;;;;;;4993740;28;93455;-47
2024/01/09 11:17:57;;;;;;;;;;;2.00;80.90;;;;;;4991109;28;91938;-47
2024/01/09 11:20:23;;;;;;;;;;;1.90;80.70;;;;;;4993495;28;92915;-47
2024/01/09 11:22:49;;;;;;;;;;;1.90;80.80;;;;;;4992372;28;93490;-47
2024/01/09 11:25:18;;;;;;;;;;;1.90;80.60;;;;;;4994703;28;91293;-49
2024/01/09 11:27:47;;;;;;;;;;;1.90;80.70;;;;;;4993561;28;92000;-47
2024/01/09 11:30:15;;;;;;;;;;;1.90;80.70;;;;;;4996319;28;93924;-48
2024/01/09 11:32:41;;;;;;;;;;;1.90;80.50;;;;;;4997077;28;92906;-47
2024/01/09 11:35:12;;;;;;;;;;;1.90;80.60;;;;;;4990701;28;93463;-47
2024/01/09 11:37:39;;;;;;;;;;;1.80;80.30;;;;;;4996256;28;92141;-47
2024/01/09 11:40:11;;;;;;;;;;;1.80;80.50;;;;;;4990108;28;92891;-47
2024/01/09 11:42:37;;;;;;;;;;;1.80;80.50;;;;;;4988631;28;93860;-47
2024/01/09 11:45:03;;;;;;;;;;;1.90;80.50;;;;;;4992048;28;92030;-47
2024/01/09 11:47:29;;;;;;;;;;;1.80;80.60;;;;;;4998041;28;92679;-49
2024/01/09 11:49:58;;;;;;;;;;;1.80;80.30;;;;;;4994365;28;91961;-49
2024/01/09 11:52:26;;;;;;;;;;;1.70;80.20;;;;;;4999959;28;92222;-49
2024/01/09 11:54:52;;;;;;;;;;;1.80;80.20;;;;;;4998883;28;93811;-48
2024/01/09 11:57:19;;;;;;;;;;;1.70;80.10;;;;;;4992908;28;94047;-48
2024/01/09 11:59:47;;;;;;;;;;;1.70;80.20;;;;;;4997566;28;92611;-48
2024/01/09 12:02:12;;;;;;;;;;;1.70;79.70;;;;;;4998130;28;92460;-48
2024/01/09 12:04:39;;;;;;;;;;;1.60;79.80;;;;;;4998635;28;91990;-48
2024/01/09 12:07:05;;;;;;;;;;;1.60;79.80;;;;;;4993649;28;92725;-50
2024/01/09 12:09:30;;;;;;;;;;;1.60;79.60;;;;;;4994922;28;93604;-48
2024/01/09 12:11:56;;;;;;;;;;;1.60;80.10;;;;;;4999648;28;91968;-48
2024/01/09 12:14:22;;;;;;;;;;;1.60;79.80;;;;;;4993840;28;91658;-48
2024/01/09 12:16:49;;;;;;;;;;;1.60;79.40;;;;;;4995091;28;93103;-51
2024/01/09 12:19:16;;;;;;;;;;;1.50;79.60;;;;;;4996213;28;92796;-50
2024/01/09 12:21:41;;;;;;;;;;;1.60;79.50;;;;;;4995929;28;94631;-49
2024/01/09 12:24:07;;;;;;;;;;;1.60;79.90;;;;;;4991927;28;92305;-48
2024/01/09 12:26:33;;;;;;;;;;;1.60;78.90;;;;;;4998163;28;92090;-48
2024/01/09 12:28:59;;;;;;;;;;;1.70;78.90;;;;;;4998279;28;92478;-47
2024/01/09 12:31:25;;;;;;;;;;;1.60;79.30;;;;;;4996993;28;92130;-47
2024/01/09 12:33:50;;;;;;;;;;;1.60;79.10;;;;;;4995739;28;93009;-47
2024/01/09 12:36:16;;;;;;;;;;;1.60;78.10;;;;;;4991441;28;92113;-48
2024/01/09 12:38:42;;;;;;;;;;;1.60;78.70;;;;;;4997876;28;91677;-50
2024/01/09 12:41:08;;;;;;;;;;;1.60;79.00;;;;;;4995533;28;93569;-48
2024/01/09 12:43:34;;;;;;;;;;;1.60;78.70;;;;;;4996639;28;93039;-48
2024/01/09 12:46:00;;;;;;;;;;;1.70;78.40;;;;;;4992832;28;93017;-47
2024/01/09 12:48:26;;;;;;;;;;;1.60;78.40;;;;;;4996477;28;92429;-48
2024/01/09 12:51:05;;;;;;;;;;;1.70;77.80;;;;;;4996970;28;92072;-48
2024/01/09 12:53:32;;;;;;;;;;;1.60;78.10;;;;;;4996945;28;93866;-49
2024/01/09 12:56:05;;;;;;;;;;;1.70;78.00;;;;;;4993738;28;92445;-47
2024/01/09 12:58:31;;;;;;;;;;;1.60;78.20;;;;;;4995762;28;91975;-48
2024/01/09 13:00:57;;;;;;;;;;;1.50;78.00;;;;;;4997224;28;93673;-48
2024/01/09 13:03:23;;;;;;;;;;;1.50;77.90;;;;;;4994522;28;91369;-49
2024/01/09 13:05:48;;;;;;;;;;;1.50;78.20;;;;;;4997093;28;92116;-49
2024/01/09 13:08:15;;;;;;;;;;;1.50;78.10;;;;;;4998052;28;92442;-47
2024/01/09 13:10:41;;;;;;;;;;;1.50;78.10;;;;;;4993116;28;93137;-48
2024/01/09 13:13:07;;;;;;;;;;;1.50;77.80;;;;;;4997870;28;92701;-48
2024/01/09 13:15:32;;;;;;;;;;;1.50;78.10;;;;;;4996392;28;92129;-48
2024/01/09 13:17:58;;;;;;;;;;;1.40;78.00;;;;;;4998227;28;92195;-48
2024/01/09 13:20:25;;;;;;;;;;;1.40;77.60;;;;;;4991700;28;92535;-50
2024/01/09 13:22:51;;;;;;;;;;;1.40;78.40;;;;;;4994444;28;91971;-48
2024/01/09 13:25:16;;;;;;;;;;;1.40;77.80;;;;;;5001966;28;91954;-47
2024/01/09 13:27:44;;;;;;;;;;;1.30;78.30;;;;;;4996455;28;91508;-48
2024/01/09 13:30:10;;;;;;;;;;;1.30;78.20;;;;;;4990060;28;93885;-48
2024/01/09 13:32:37;;;;;;;;;;;1.40;78.30;;;;;;4996240;28;92763;-50
2024/01/09 13:35:03;;;;;;;;;;;1.30;78.30;;;;;;4992996;28;94560;-47
2024/01/09 13:37:29;;;;;;;;;;;1.30;78.20;;;;;;4993008;28;93798;-47
2024/01/09 13:39:56;;;;;;;;;;;1.30;78.40;;;;;;5001897;28;92898;-47
2024/01/09 13:42:22;;;;;;;;;;;1.30;78.20;;;;;;4992410;28;92003;-48
2024/01/09 13:44:47;;;;;;;;;;;1.30;78.40;;;;;;4995133;28;91998;-49
2024/01/09 13:47:13;;;;;;;;;;;1.30;78.50;;;;;;4992098;28;92076;-47
2024/01/09 13:49:39;;;;;;;;;;;1.20;78.20;;;;;;4990392;28;92617;-49
2024/01/09 13:52:05;;;;;;;;;;;1.20;78.40;;;;;;4994764;28;92008;-52
2024/01/09 13:54:31;;;;;;;;;;;1.20;78.70;;;;;;4992803;28;92511;-47
2024/01/09 13:56:57;;;;;;;;;;;1.20;78.90;;;;;;4993952;28;92194;-48
2024/01/09 13:59:23;;;;;;;;;;;1.10;78.60;;;;;;4994885;28;93387;-47
2024/01/09 14:01:49;;;;;;;;;;;1.20;78.70;;;;;;5000417;28;93841;-49
2024/01/09 14:04:15;;;;;;;;;;;1.20;78.50;;;;;;4998656;28;91985;-47
2024/01/09 14:06:41;;;;;;;;;;;1.20;78.00;;;;;;4993302;28;93797;-47
2024/01/09 14:09:07;;;;;;;;;;;1.10;77.80;;;;;;4999200;28;92064;-47
2024/01/09 14:11:32;;;;;;;;;;;1.20;77.40;;;;;;4990771;28;91958;-48
2024/01/09 14:13:58;;;;;;;;;;;1.20;77.20;;;;;;4993499;28;92525;-48
2024/01/09 14:16:24;;;;;;;;;;;1.20;76.90;;;;;;4994264;28;91401;-48
2024/01/09 14:18:49;;;;;;;;;;;1.10;77.50;;;;;;4995089;28;92092;-48
2024/01/09 14:21:15;;;;;;;;;;;1.10;77.80;;;;;;4994172;28;92505;-47
2024/01/09 14:23:40;;;;;;;;;;;1.10;77.20;;;;;;4994658;28;93126;-49